Advance Mills, Virginia
Current Conditions -  °F | °C
As of 6:53 PM on Tuesday 25 Nov 2014 (Local Time) from KCHO Reporting Station
Clear Clear  
Wind Chill: 51°   Ceiling: Unl
Heat Index: 51°   Visibility: 10mi
Dew Point: 32°   Wind: 6mph
Humidity: 48%   Direction: 180°S
Pressure: 30.09"   Gusts: NA
Location:  38.2469°N, 78.3926°W
Report Text: KCHO 252353Z 18005KT 10SM CLR 11/00 A3009 RMK AO2 SLP188 T01060000 10144 20100 53023
Loading
Personal Weather Stations






























Interactive Weather Map New forecast layout! Learn more

10-Day Weather Forecast

Advertisements
Track Severe Weather on mobile